sensor_id;sensor_type;location;lat;lon;timestamp;pressure;altitude;pressure_sealevel;temperature
69186;BMP280;56298;49.246;9.410;2022-11-15T00:00:29;99199.91;;;9.57
69186;BMP280;56298;49.246;9.410;2022-11-15T00:02:54;99198.72;;;9.42
69186;BMP280;56298;49.246;9.410;2022-11-15T00:05:20;99204.06;;;9.51
69186;BMP280;56298;49.246;9.410;2022-11-15T00:07:45;99200.38;;;9.59
69186;BMP280;56298;49.246;9.410;2022-11-15T00:10:10;99189.16;;;9.65
69186;BMP280;56298;49.246;9.410;2022-11-15T00:12:37;99196.09;;;9.62
69186;BMP280;56298;49.246;9.410;2022-11-15T00:15:03;99196.69;;;9.68
69186;BMP280;56298;49.246;9.410;2022-11-15T00:17:28;99201.09;;;9.72
69186;BMP280;56298;49.246;9.410;2022-11-15T00:19:54;99192.78;;;9.69
69186;BMP280;56298;49.246;9.410;2022-11-15T00:22:19;99196.97;;;9.79
69186;BMP280;56298;49.246;9.410;2022-11-15T00:24:45;99190.44;;;9.83
69186;BMP280;56298;49.246;9.410;2022-11-15T00:27:10;99196.16;;;9.78
69186;BMP280;56298;49.246;9.410;2022-11-15T00:29:35;99186.34;;;9.77
69186;BMP280;56298;49.246;9.410;2022-11-15T00:32:03;99183.19;;;9.75
69186;BMP280;56298;49.246;9.410;2022-11-15T00:34:29;99184.41;;;9.78
69186;BMP280;56298;49.246;9.410;2022-11-15T00:36:54;99182.22;;;9.83
69186;BMP280;56298;49.246;9.410;2022-11-15T00:39:19;99175.41;;;9.77
69186;BMP280;56298;49.246;9.410;2022-11-15T00:41:44;99168.38;;;9.64
69186;BMP280;56298;49.246;9.410;2022-11-15T00:44:10;99178.38;;;9.56
69186;BMP280;56298;49.246;9.410;2022-11-15T00:46:35;99175.53;;;9.52
69186;BMP280;56298;49.246;9.410;2022-11-15T00:49:00;99177.22;;;9.57
69186;BMP280;56298;49.246;9.410;2022-11-15T00:51:25;99165.84;;;9.71
69186;BMP280;56298;49.246;9.410;2022-11-15T00:53:51;99175.56;;;9.68
69186;BMP280;56298;49.246;9.410;2022-11-15T00:56:16;99171.41;;;9.58
69186;BMP280;56298;49.246;9.410;2022-11-15T00:58:44;99179.81;;;9.66
69186;BMP280;56298;49.246;9.410;2022-11-15T01:01:12;99175.47;;;9.49
69186;BMP280;56298;49.246;9.410;2022-11-15T01:03:39;99173.31;;;9.42
69186;BMP280;56298;49.246;9.410;2022-11-15T01:06:06;99167.59;;;9.47
69186;BMP280;56298;49.246;9.410;2022-11-15T01:08:31;99166.25;;;9.41
69186;BMP280;56298;49.246;9.410;2022-11-15T01:11:02;99171.53;;;9.34
69186;BMP280;56298;49.246;9.410;2022-11-15T01:13:30;99158.97;;;9.32
69186;BMP280;56298;49.246;9.410;2022-11-15T01:15:55;99163.81;;;9.23
69186;BMP280;56298;49.246;9.410;2022-11-15T01:18:20;99155.28;;;9.25
69186;BMP280;56298;49.246;9.410;2022-11-15T01:20:46;99152.16;;;9.26
69186;BMP280;56298;49.246;9.410;2022-11-15T01:23:11;99150.41;;;9.18
69186;BMP280;56298;49.246;9.410;2022-11-15T01:25:36;99145.91;;;8.97
69186;BMP280;56298;49.246;9.410;2022-11-15T01:28:01;99145.72;;;8.90
69186;BMP280;56298;49.246;9.410;2022-11-15T01:30:27;99142.19;;;8.77
69186;BMP280;56298;49.246;9.410;2022-11-15T01:32:52;99140.28;;;8.65
69186;BMP280;56298;49.246;9.410;2022-11-15T01:35:17;99141.69;;;8.59
69186;BMP280;56298;49.246;9.410;2022-11-15T01:37:43;99130.09;;;8.49
69186;BMP280;56298;49.246;9.410;2022-11-15T01:40:08;99129.06;;;8.54
69186;BMP280;56298;49.246;9.410;2022-11-15T01:42:33;99127.91;;;8.55
69186;BMP280;56298;49.246;9.410;2022-11-15T01:44:59;99127.91;;;8.55
69186;BMP280;56298;49.246;9.410;2022-11-15T01:47:33;99118.25;;;8.45
69186;BMP280;56298;49.246;9.410;2022-11-15T01:50:08;99117.91;;;8.47
69186;BMP280;56298;49.246;9.410;2022-11-15T01:52:35;99120.38;;;8.52
69186;BMP280;56298;49.246;9.410;2022-11-15T01:55:06;99115.16;;;8.47
69186;BMP280;56298;49.246;9.410;2022-11-15T01:57:34;99117.09;;;8.59
69186;BMP280;56298;49.246;9.410;2022-11-15T02:00:00;99106.16;;;8.46
69186;BMP280;56298;49.246;9.410;2022-11-15T02:02:25;99111.50;;;8.55
69186;BMP280;56298;49.246;9.410;2022-11-15T02:04:50;99114.72;;;8.45
69186;BMP280;56298;49.246;9.410;2022-11-15T02:07:17;99111.78;;;8.50
69186;BMP280;56298;49.246;9.410;2022-11-15T02:09:44;99106.03;;;8.55
69186;BMP280;56298;49.246;9.410;2022-11-15T02:12:11;99112.66;;;8.54
69186;BMP280;56298;49.246;9.410;2022-11-15T02:14:40;99110.25;;;8.40
69186;BMP280;56298;49.246;9.410;2022-11-15T02:17:29;99108.72;;;8.27
69186;BMP280;56298;49.246;9.410;2022-11-15T02:23:06;99108.03;;;8.17
69186;BMP280;56298;49.246;9.410;2022-11-15T02:25:43;99100.19;;;8.16
69186;BMP280;56298;49.246;9.410;2022-11-15T02:28:39;99092.34;;;8.02
69186;BMP280;56298;49.246;9.410;2022-11-15T02:34:02;99089.81;;;7.97
69186;BMP280;56298;49.246;9.410;2022-11-15T02:36:38;99094.50;;;7.96
69186;BMP280;56298;49.246;9.410;2022-11-15T02:39:20;99088.81;;;7.89
69186;BMP280;56298;49.246;9.410;2022-11-15T02:41:54;99088.59;;;7.94
69186;BMP280;56298;49.246;9.410;2022-11-15T02:44:28;99094.84;;;7.94
69186;BMP280;56298;49.246;9.410;2022-11-15T02:46:58;99088.25;;;7.96
69186;BMP280;56298;49.246;9.410;2022-11-15T02:49:49;99080.59;;;8.01
69186;BMP280;56298;49.246;9.410;2022-11-15T02:52:20;99076.41;;;8.04
69186;BMP280;56298;49.246;9.410;2022-11-15T02:54:53;99079.13;;;8.04
69186;BMP280;56298;49.246;9.410;2022-11-15T03:00:15;99073.09;;;8.11
69186;BMP280;56298;49.246;9.410;2022-11-15T03:06:38;99074.38;;;8.01
69186;BMP280;56298;49.246;9.410;2022-11-15T03:09:07;99076.53;;;7.95
69186;BMP280;56298;49.246;9.410;2022-11-15T03:11:41;99070.00;;;7.75
69186;BMP280;56298;49.246;9.410;2022-11-15T03:14:23;99067.66;;;7.61
69186;BMP280;56298;49.246;9.410;2022-11-15T03:19:41;99077.72;;;7.48
69186;BMP280;56298;49.246;9.410;2022-11-15T03:22:11;99073.88;;;7.49
69186;BMP280;56298;49.246;9.410;2022-11-15T03:24:38;99069.41;;;7.44
69186;BMP280;56298;49.246;9.410;2022-11-15T03:27:05;99070.31;;;7.36
69186;BMP280;56298;49.246;9.410;2022-11-15T03:29:34;99067.94;;;7.47
69186;BMP280;56298;49.246;9.410;2022-11-15T03:32:05;99068.84;;;7.51
69186;BMP280;56298;49.246;9.410;2022-11-15T03:34:52;99065.13;;;7.56
69186;BMP280;56298;49.246;9.410;2022-11-15T03:37:21;99056.59;;;7.57
69186;BMP280;56298;49.246;9.410;2022-11-15T03:39:47;99043.97;;;7.52
69186;BMP280;56298;49.246;9.410;2022-11-15T03:42:39;99040.75;;;7.50
69186;BMP280;56298;49.246;9.410;2022-11-15T03:47:36;99036.59;;;7.53
69186;BMP280;56298;49.246;9.410;2022-11-15T03:50:15;99032.72;;;7.54
69186;BMP280;56298;49.246;9.410;2022-11-15T03:52:42;99028.25;;;7.49
69186;BMP280;56298;49.246;9.410;2022-11-15T03:55:13;99033.59;;;7.33
69186;BMP280;56298;49.246;9.410;2022-11-15T03:57:38;99035.41;;;7.42
69186;BMP280;56298;49.246;9.410;2022-11-15T04:00:04;99026.56;;;7.32
69186;BMP280;56298;49.246;9.410;2022-11-15T04:02:30;99028.47;;;7.32
69186;BMP280;56298;49.246;9.410;2022-11-15T04:04:55;99028.34;;;7.28
69186;BMP280;56298;49.246;9.410;2022-11-15T04:07:21;99034.53;;;7.25
69186;BMP280;56298;49.246;9.410;2022-11-15T04:09:46;99038.28;;;7.33
69186;BMP280;56298;49.246;9.410;2022-11-15T04:12:38;99033.47;;;7.30
69186;BMP280;56298;49.246;9.410;2022-11-15T04:15:13;99026.91;;;7.43
69186;BMP280;56298;49.246;9.410;2022-11-15T04:17:42;99026.78;;;7.39
69186;BMP280;56298;49.246;9.410;2022-11-15T04:20:21;99030.25;;;7.49
69186;BMP280;56298;49.246;9.410;2022-11-15T04:23:11;99027.69;;;7.31
69186;BMP280;56298;49.246;9.410;2022-11-15T04:25:56;99027.13;;;7.38
69186;BMP280;56298;49.246;9.410;2022-11-15T04:28:23;99032.69;;;7.42
69186;BMP280;56298;49.246;9.410;2022-11-15T04:30:48;99028.94;;;7.34
69186;BMP280;56298;49.246;9.410;2022-11-15T04:33:13;99022.72;;;7.46
69186;BMP280;56298;49.246;9.410;2022-11-15T04:35:39;99018.94;;;7.50
69186;BMP280;56298;49.246;9.410;2022-11-15T04:38:06;99015.19;;;7.43
69186;BMP280;56298;49.246;9.410;2022-11-15T04:40:32;99020.06;;;7.49
69186;BMP280;56298;49.246;9.410;2022-11-15T04:42:57;99023.16;;;7.48
69186;BMP280;56298;49.246;9.410;2022-11-15T04:45:22;99021.13;;;7.45
69186;BMP280;56298;49.246;9.410;2022-11-15T04:47:48;99020.88;;;7.50
69186;BMP280;56298;49.246;9.410;2022-11-15T04:50:15;99010.22;;;7.45
69186;BMP280;56298;49.246;9.410;2022-11-15T04:52:50;99011.34;;;7.44
69186;BMP280;56298;49.246;9.410;2022-11-15T04:55:16;99016.13;;;7.59
69186;BMP280;56298;49.246;9.410;2022-11-15T04:57:41;99012.69;;;7.62
69186;BMP280;56298;49.246;9.410;2022-11-15T05:00:09;99009.97;;;7.62
69186;BMP280;56298;49.246;9.410;2022-11-15T05:02:35;98996.78;;;7.64
69186;BMP280;56298;49.246;9.410;2022-11-15T05:05:27;98996.56;;;7.70
69186;BMP280;56298;49.246;9.410;2022-11-15T05:07:52;98992.38;;;7.60
69186;BMP280;56298;49.246;9.410;2022-11-15T05:10:17;98987.94;;;7.68
69186;BMP280;56298;49.246;9.410;2022-11-15T05:12:42;98995.75;;;7.69
69186;BMP280;56298;49.246;9.410;2022-11-15T05:15:08;98990.31;;;7.69
69186;BMP280;56298;49.246;9.410;2022-11-15T05:17:34;98984.53;;;7.71
69186;BMP280;56298;49.246;9.410;2022-11-15T05:19:59;98978.72;;;7.72
69186;BMP280;56298;49.246;9.410;2022-11-15T05:22:24;98977.22;;;7.75
69186;BMP280;56298;49.246;9.410;2022-11-15T05:24:49;98981.31;;;7.81
69186;BMP280;56298;49.246;9.410;2022-11-15T05:27:15;98986.66;;;7.77
69186;BMP280;56298;49.246;9.410;2022-11-15T05:29:40;98987.81;;;7.76
69186;BMP280;56298;49.246;9.410;2022-11-15T05:32:06;98981.31;;;7.81
69186;BMP280;56298;49.246;9.410;2022-11-15T05:34:32;98981.78;;;7.83
69186;BMP280;56298;49.246;9.410;2022-11-15T05:36:57;98979.72;;;7.80
69186;BMP280;56298;49.246;9.410;2022-11-15T05:39:22;98985.19;;;7.80
69186;BMP280;56298;49.246;9.410;2022-11-15T05:41:51;98981.47;;;7.85
69186;BMP280;56298;49.246;9.410;2022-11-15T05:44:19;98983.47;;;7.88
69186;BMP280;56298;49.246;9.410;2022-11-15T05:46:45;98975.53;;;7.83
69186;BMP280;56298;49.246;9.410;2022-11-15T05:49:13;98980.19;;;7.82
69186;BMP280;56298;49.246;9.410;2022-11-15T05:51:41;98976.34;;;7.83
69186;BMP280;56298;49.246;9.410;2022-11-15T05:54:10;98972.00;;;7.70
69186;BMP280;56298;49.246;9.410;2022-11-15T05:56:35;98975.78;;;7.65
69186;BMP280;56298;49.246;9.410;2022-11-15T05:59:01;98973.63;;;7.58
69186;BMP280;56298;49.246;9.410;2022-11-15T06:01:27;98970.63;;;7.51
69186;BMP280;56298;49.246;9.410;2022-11-15T06:03:52;98981.22;;;7.52
69186;BMP280;56298;49.246;9.410;2022-11-15T06:06:18;98974.06;;;7.35
69186;BMP280;56298;49.246;9.410;2022-11-15T06:08:43;98982.09;;;7.32
69186;BMP280;56298;49.246;9.410;2022-11-15T06:11:08;98983.38;;;7.22
69186;BMP280;56298;49.246;9.410;2022-11-15T06:13:34;98986.88;;;7.22
69186;BMP280;56298;49.246;9.410;2022-11-15T06:16:00;98992.22;;;7.19
69186;BMP280;56298;49.246;9.410;2022-11-15T06:18:26;98989.59;;;7.10
69186;BMP280;56298;49.246;9.410;2022-11-15T06:20:51;98990.25;;;7.07
69186;BMP280;56298;49.246;9.410;2022-11-15T06:23:17;98992.53;;;7.05
69186;BMP280;56298;49.246;9.410;2022-11-15T06:25:42;98999.19;;;6.95
69186;BMP280;56298;49.246;9.410;2022-11-15T06:28:07;98993.75;;;6.95
69186;BMP280;56298;49.246;9.410;2022-11-15T06:30:33;98996.13;;;6.96
69186;BMP280;56298;49.246;9.410;2022-11-15T06:33:00;98991.56;;;6.88
69186;BMP280;56298;49.246;9.410;2022-11-15T06:35:26;98986.44;;;6.87
69186;BMP280;56298;49.246;9.410;2022-11-15T06:37:51;98990.41;;;6.89
69186;BMP280;56298;49.246;9.410;2022-11-15T06:40:17;98992.16;;;6.94
69186;BMP280;56298;49.246;9.410;2022-11-15T06:42:42;98986.00;;;6.84
69186;BMP280;56298;49.246;9.410;2022-11-15T06:45:07;98994.50;;;6.83
69186;BMP280;56298;49.246;9.410;2022-11-15T06:47:33;98992.59;;;6.83
69186;BMP280;56298;49.246;9.410;2022-11-15T06:49:58;98994.59;;;6.87
69186;BMP280;56298;49.246;9.410;2022-11-15T06:52:23;98992.59;;;6.83
69186;BMP280;56298;49.246;9.410;2022-11-15T06:54:49;98995.00;;;6.85
69186;BMP280;56298;49.246;9.410;2022-11-15T06:57:14;98992.47;;;6.92
69186;BMP280;56298;49.246;9.410;2022-11-15T06:59:39;98986.91;;;7.01
69186;BMP280;56298;49.246;9.410;2022-11-15T07:02:05;98993.47;;;7.21
69186;BMP280;56298;49.246;9.410;2022-11-15T07:04:30;98991.31;;;7.52
69186;BMP280;56298;49.246;9.410;2022-11-15T07:06:55;98989.97;;;7.71
69186;BMP280;56298;49.246;9.410;2022-11-15T07:09:21;99002.03;;;7.82
69186;BMP280;56298;49.246;9.410;2022-11-15T07:11:46;98996.44;;;7.78
69186;BMP280;56298;49.246;9.410;2022-11-15T07:14:12;98989.50;;;7.93
69186;BMP280;56298;49.246;9.410;2022-11-15T07:16:37;98997.38;;;7.95
69186;BMP280;56298;49.246;9.410;2022-11-15T07:19:03;98994.97;;;8.06
69186;BMP280;56298;49.246;9.410;2022-11-15T07:21:29;98996.75;;;8.14
69186;BMP280;56298;49.246;9.410;2022-11-15T07:23:54;98984.31;;;8.29
69186;BMP280;56298;49.246;9.410;2022-11-15T07:26:19;98988.59;;;8.30
69186;BMP280;56298;49.246;9.410;2022-11-15T07:28:45;98985.19;;;8.33
69186;BMP280;56298;49.246;9.410;2022-11-15T07:31:10;98984.41;;;8.33
69186;BMP280;56298;49.246;9.410;2022-11-15T07:33:35;98989.78;;;8.29
69186;BMP280;56298;49.246;9.410;2022-11-15T07:36:02;98983.13;;;8.30
69186;BMP280;56298;49.246;9.410;2022-11-15T07:38:28;98986.69;;;8.31
69186;BMP280;56298;49.246;9.410;2022-11-15T07:40:58;98990.88;;;8.41
69186;BMP280;56298;49.246;9.410;2022-11-15T07:43:24;98987.84;;;8.58
69186;BMP280;56298;49.246;9.410;2022-11-15T07:45:50;98986.13;;;8.82
69186;BMP280;56298;49.246;9.410;2022-11-15T07:48:15;98982.13;;;9.08
69186;BMP280;56298;49.246;9.410;2022-11-15T07:50:41;98988.56;;;9.48
69186;BMP280;56298;49.246;9.410;2022-11-15T07:53:08;98987.88;;;9.87
69186;BMP280;56298;49.246;9.410;2022-11-15T07:55:33;98996.81;;;10.04
69186;BMP280;56298;49.246;9.410;2022-11-15T07:58:06;98987.66;;;10.15
69186;BMP280;56298;49.246;9.410;2022-11-15T08:00:32;99000.94;;;10.33
69186;BMP280;56298;49.246;9.410;2022-11-15T08:03:16;98999.41;;;10.36
69186;BMP280;56298;49.246;9.410;2022-11-15T08:05:43;98995.75;;;10.48
69186;BMP280;56298;49.246;9.410;2022-11-15T08:08:14;98987.66;;;10.75
69186;BMP280;56298;49.246;9.410;2022-11-15T08:10:39;98989.59;;;10.97
69186;BMP280;56298;49.246;9.410;2022-11-15T08:13:08;98993.44;;;10.93
69186;BMP280;56298;49.246;9.410;2022-11-15T08:15:35;98994.72;;;10.76
69186;BMP280;56298;49.246;9.410;2022-11-15T08:18:03;98989.50;;;10.70
69186;BMP280;56298;49.246;9.410;2022-11-15T08:20:30;98992.69;;;10.73
69186;BMP280;56298;49.246;9.410;2022-11-15T08:23:00;98992.75;;;10.76
69186;BMP280;56298;49.246;9.410;2022-11-15T08:25:26;98994.72;;;10.56
69186;BMP280;56298;49.246;9.410;2022-11-15T08:27:53;99002.16;;;10.36
69186;BMP280;56298;49.246;9.410;2022-11-15T08:30:19;98989.41;;;10.24
69186;BMP280;56298;49.246;9.410;2022-11-15T08:32:44;98984.34;;;10.06
69186;BMP280;56298;49.246;9.410;2022-11-15T08:35:09;98984.50;;;9.94
69186;BMP280;56298;49.246;9.410;2022-11-15T08:37:35;98982.19;;;9.96
69186;BMP280;56298;49.246;9.410;2022-11-15T08:40:00;98978.22;;;9.93
69186;BMP280;56298;49.246;9.410;2022-11-15T08:42:26;98975.13;;;10.14
69186;BMP280;56298;49.246;9.410;2022-11-15T08:44:51;98974.63;;;10.28
69186;BMP280;56298;49.246;9.410;2022-11-15T08:47:17;98974.19;;;10.26
69186;BMP280;56298;49.246;9.410;2022-11-15T08:49:42;98969.16;;;10.28
69186;BMP280;56298;49.246;9.410;2022-11-15T08:52:07;98963.88;;;10.20
69186;BMP280;56298;49.246;9.410;2022-11-15T08:54:32;98969.63;;;10.34
69186;BMP280;56298;49.246;9.410;2022-11-15T08:56:58;98957.50;;;10.55
69186;BMP280;56298;49.246;9.410;2022-11-15T08:59:23;98957.13;;;11.03
69186;BMP280;56298;49.246;9.410;2022-11-15T09:01:48;98947.94;;;11.42
69186;BMP280;56298;49.246;9.410;2022-11-15T09:04:14;98951.41;;;11.66
69186;BMP280;56298;49.246;9.410;2022-11-15T09:06:39;98951.91;;;11.75
69186;BMP280;56298;49.246;9.410;2022-11-15T09:09:04;98951.22;;;11.82
69186;BMP280;56298;49.246;9.410;2022-11-15T09:11:30;98950.78;;;12.07
69186;BMP280;56298;49.246;9.410;2022-11-15T09:13:55;98947.38;;;12.21
69186;BMP280;56298;49.246;9.410;2022-11-15T09:16:20;98940.75;;;12.67
69186;BMP280;56298;49.246;9.410;2022-11-15T09:18:46;98943.19;;;12.76
69186;BMP280;56298;49.246;9.410;2022-11-15T09:21:11;98945.31;;;12.97
69186;BMP280;56298;49.246;9.410;2022-11-15T09:23:37;98940.25;;;13.03
69186;BMP280;56298;49.246;9.410;2022-11-15T09:26:03;98941.56;;;13.20
69186;BMP280;56298;49.246;9.410;2022-11-15T09:28:30;98938.44;;;13.25
69186;BMP280;56298;49.246;9.410;2022-11-15T09:31:00;98939.31;;;13.40
69186;BMP280;56298;49.246;9.410;2022-11-15T09:33:26;98946.44;;;13.52
69186;BMP280;56298;49.246;9.410;2022-11-15T09:35:51;98932.34;;;13.61
69186;BMP280;56298;49.246;9.410;2022-11-15T09:38:17;98930.41;;;13.68
69186;BMP280;56298;49.246;9.410;2022-11-15T09:40:42;98927.66;;;13.72
69186;BMP280;56298;49.246;9.410;2022-11-15T09:43:39;98925.75;;;13.87
69186;BMP280;56298;49.246;9.410;2022-11-15T09:49:01;98921.88;;;14.17
69186;BMP280;56298;49.246;9.410;2022-11-15T09:51:30;98915.59;;;14.02
69186;BMP280;56298;49.246;9.410;2022-11-15T09:54:04;98920.28;;;13.94
69186;BMP280;56298;49.246;9.410;2022-11-15T09:56:31;98912.84;;;14.17
69186;BMP280;56298;49.246;9.410;2022-11-15T10:01:49;98911.69;;;14.43
69186;BMP280;56298;49.246;9.410;2022-11-15T10:04:20;98902.25;;;14.55
69186;BMP280;56298;49.246;9.410;2022-11-15T10:09:49;98903.81;;;14.74
69186;BMP280;56298;49.246;9.410;2022-11-15T10:12:17;98899.47;;;14.70
69186;BMP280;56298;49.246;9.410;2022-11-15T10:14:42;98897.53;;;14.66
69186;BMP280;56298;49.246;9.410;2022-11-15T10:20:27;98893.97;;;14.59
69186;BMP280;56298;49.246;9.410;2022-11-15T10:23:00;98888.81;;;14.68
69186;BMP280;56298;49.246;9.410;2022-11-15T10:25:31;98891.19;;;14.70
69186;BMP280;56298;49.246;9.410;2022-11-15T10:28:16;98889.63;;;14.61
69186;BMP280;56298;49.246;9.410;2022-11-15T10:30:46;98886.09;;;14.64
69186;BMP280;56298;49.246;9.410;2022-11-15T10:33:26;98875.06;;;14.64
69186;BMP280;56298;49.246;9.410;2022-11-15T10:41:21;98861.66;;;14.70
69186;BMP280;56298;49.246;9.410;2022-11-15T10:49:26;98848.94;;;15.13
69186;BMP280;56298;49.246;9.410;2022-11-15T10:51:57;98848.47;;;15.21
69186;BMP280;56298;49.246;9.410;2022-11-15T10:56:59;98838.94;;;15.41
69186;BMP280;56298;49.246;9.410;2022-11-15T10:59:28;98842.03;;;15.53
69186;BMP280;56298;49.246;9.410;2022-11-15T11:01:54;98830.94;;;15.61
69186;BMP280;56298;49.246;9.410;2022-11-15T11:04:20;98833.63;;;15.75
69186;BMP280;56298;49.246;9.410;2022-11-15T11:09:34;98824.22;;;15.65
69186;BMP280;56298;49.246;9.410;2022-11-15T11:12:01;98820.63;;;15.72
69186;BMP280;56298;49.246;9.410;2022-11-15T11:14:32;98817.91;;;15.61
69186;BMP280;56298;49.246;9.410;2022-11-15T11:19:53;98820.25;;;15.63
69186;BMP280;56298;49.246;9.410;2022-11-15T11:22:34;98822.56;;;15.75
69186;BMP280;56298;49.246;9.410;2022-11-15T11:25:13;98818.63;;;15.76
69186;BMP280;56298;49.246;9.410;2022-11-15T11:30:35;98811.50;;;15.79
69186;BMP280;56298;49.246;9.410;2022-11-15T11:33:16;98810.00;;;15.67
69186;BMP280;56298;49.246;9.410;2022-11-15T11:38:51;98815.13;;;15.65
69186;BMP280;56298;49.246;9.410;2022-11-15T11:41:55;98813.13;;;15.69
69186;BMP280;56298;49.246;9.410;2022-11-15T11:44:44;98813.13;;;15.69
69186;BMP280;56298;49.246;9.410;2022-11-15T11:47:21;98804.94;;;15.51
69186;BMP280;56298;49.246;9.410;2022-11-15T11:49:52;98798.31;;;15.34
69186;BMP280;56298;49.246;9.410;2022-11-15T11:57:39;98778.97;;;15.34
69186;BMP280;56298;49.246;9.410;2022-11-15T12:00:18;98779.78;;;15.38
69186;BMP280;56298;49.246;9.410;2022-11-15T12:03:08;98762.41;;;15.34
69186;BMP280;56298;49.246;9.410;2022-11-15T12:05:41;98751.72;;;15.43
69186;BMP280;56298;49.246;9.410;2022-11-15T12:13:33;98744.22;;;15.40
69186;BMP280;56298;49.246;9.410;2022-11-15T12:16:21;98746.19;;;15.43
69186;BMP280;56298;49.246;9.410;2022-11-15T12:18:54;98739.41;;;15.55
69186;BMP280;56298;49.246;9.410;2022-11-15T12:21:31;98736.88;;;15.79
69186;BMP280;56298;49.246;9.410;2022-11-15T12:24:02;98736.75;;;15.86
69186;BMP280;56298;49.246;9.410;2022-11-15T12:26:38;98746.59;;;15.94
69186;BMP280;56298;49.246;9.410;2022-11-15T12:29:57;98735.16;;;15.92
69186;BMP280;56298;49.246;9.410;2022-11-15T12:31:56;98731.09;;;16.04
69186;BMP280;56298;49.246;9.410;2022-11-15T12:36:53;98718.09;;;16.01
69186;BMP280;56298;49.246;9.410;2022-11-15T12:39:19;98721.56;;;15.67
69186;BMP280;56298;49.246;9.410;2022-11-15T12:59:59;98711.59;;;16.19
69186;BMP280;56298;49.246;9.410;2022-11-15T13:02:33;98708.41;;;16.24
69186;BMP280;56298;49.246;9.410;2022-11-15T13:15:37;98701.25;;;16.26
69186;BMP280;56298;49.246;9.410;2022-11-15T13:20:53;98687.06;;;16.21
69186;BMP280;56298;49.246;9.410;2022-11-15T13:23:21;98692.47;;;16.32
69186;BMP280;56298;49.246;9.410;2022-11-15T13:28:51;98669.88;;;16.37
69186;BMP280;56298;49.246;9.410;2022-11-15T13:31:40;98670.41;;;16.28
69186;BMP280;56298;49.246;9.410;2022-11-15T13:36:46;98663.88;;;16.11
69186;BMP280;56298;49.246;9.410;2022-11-15T13:39:26;98659.34;;;15.86
69186;BMP280;56298;49.246;9.410;2022-11-15T13:41:52;98656.53;;;15.93
69186;BMP280;56298;49.246;9.410;2022-11-15T13:44:39;98656.53;;;15.93
69186;BMP280;56298;49.246;9.410;2022-11-15T13:47:15;98645.22;;;15.80
69186;BMP280;56298;49.246;9.410;2022-11-15T13:49:41;98643.63;;;15.79
69186;BMP280;56298;49.246;9.410;2022-11-15T13:52:10;98636.16;;;15.76
69186;BMP280;56298;49.246;9.410;2022-11-15T13:57:41;98624.81;;;15.63
69186;BMP280;56298;49.246;9.410;2022-11-15T14:03:25;98621.41;;;15.48
69186;BMP280;56298;49.246;9.410;2022-11-15T14:06:12;98622.63;;;15.47
69186;BMP280;56298;49.246;9.410;2022-11-15T14:08:57;98611.31;;;15.31
69186;BMP280;56298;49.246;9.410;2022-11-15T14:11:22;98612.53;;;15.26
69186;BMP280;56298;49.246;9.410;2022-11-15T14:16:37;98609.81;;;15.15
69186;BMP280;56298;49.246;9.410;2022-11-15T14:19:04;98606.72;;;15.09
69186;BMP280;56298;49.246;9.410;2022-11-15T14:21:30;98605.59;;;15.03
69186;BMP280;56298;49.246;9.410;2022-11-15T14:24:15;98605.59;;;15.03
69186;BMP280;56298;49.246;9.410;2022-11-15T14:26:41;98602.75;;;15.10
69186;BMP280;56298;49.246;9.410;2022-11-15T14:29:26;98597.22;;;15.10
69186;BMP280;56298;49.246;9.410;2022-11-15T14:31:54;98588.19;;;15.06
69186;BMP280;56298;49.246;9.410;2022-11-15T14:34:19;98590.66;;;14.93
69186;BMP280;56298;49.246;9.410;2022-11-15T14:36:47;98582.00;;;14.91
69186;BMP280;56298;49.246;9.410;2022-11-15T14:39:12;98575.72;;;14.84
69186;BMP280;56298;49.246;9.410;2022-11-15T14:41:37;98569.09;;;14.74
69186;BMP280;56298;49.246;9.410;2022-11-15T14:44:04;98573.81;;;14.73
69186;BMP280;56298;49.246;9.410;2022-11-15T14:46:30;98568.34;;;14.70
69186;BMP280;56298;49.246;9.410;2022-11-15T14:48:55;98571.53;;;14.61
69186;BMP280;56298;49.246;9.410;2022-11-15T14:51:20;98568.03;;;14.53
69186;BMP280;56298;49.246;9.410;2022-11-15T14:53:46;98566.91;;;14.43
69186;BMP280;56298;49.246;9.410;2022-11-15T14:56:12;98553.13;;;14.36
69186;BMP280;56298;49.246;9.410;2022-11-15T14:58:38;98557.91;;;14.24
69186;BMP280;56298;49.246;9.410;2022-11-15T15:01:17;98555.97;;;14.18
69186;BMP280;56298;49.246;9.410;2022-11-15T15:03:44;98546.56;;;14.08
69186;BMP280;56298;49.246;9.410;2022-11-15T15:06:09;98545.03;;;14.00
69186;BMP280;56298;49.246;9.410;2022-11-15T15:08:35;98539.94;;;13.94
69186;BMP280;56298;49.246;9.410;2022-11-15T15:11:00;98539.94;;;13.94
69186;BMP280;56298;49.246;9.410;2022-11-15T15:13:25;98535.59;;;13.86
69186;BMP280;56298;49.246;9.410;2022-11-15T15:15:52;98532.47;;;13.84
69186;BMP280;56298;49.246;9.410;2022-11-15T15:18:18;98524.97;;;13.85
69186;BMP280;56298;49.246;9.410;2022-11-15T15:20:44;98519.88;;;13.79
69186;BMP280;56298;49.246;9.410;2022-11-15T15:23:19;98509.66;;;13.76
69186;BMP280;56298;49.246;9.410;2022-11-15T15:25:46;98506.13;;;13.76
69186;BMP280;56298;49.246;9.410;2022-11-15T15:28:13;98508.47;;;13.74
69186;BMP280;56298;49.246;9.410;2022-11-15T15:30:38;98504.53;;;13.75
69186;BMP280;56298;49.246;9.410;2022-11-15T15:33:03;98510.47;;;13.77
69186;BMP280;56298;49.246;9.410;2022-11-15T15:35:32;98502.63;;;13.61
69186;BMP280;56298;49.246;9.410;2022-11-15T15:37:57;98505.38;;;13.53
69186;BMP280;56298;49.246;9.410;2022-11-15T15:40:24;98500.25;;;13.52
69186;BMP280;56298;49.246;9.410;2022-11-15T15:42:49;98492.84;;;13.38
69186;BMP280;56298;49.246;9.410;2022-11-15T15:45:16;98495.19;;;13.29
69186;BMP280;56298;49.246;9.410;2022-11-15T15:47:42;98501.09;;;13.16
69186;BMP280;56298;49.246;9.410;2022-11-15T15:50:28;98489.69;;;13.07
69186;BMP280;56298;49.246;9.410;2022-11-15T15:52:57;98478.31;;;13.01
69186;BMP280;56298;49.246;9.410;2022-11-15T15:55:24;98476.31;;;12.91
69186;BMP280;56298;49.246;9.410;2022-11-15T15:57:49;98468.88;;;12.88
69186;BMP280;56298;49.246;9.410;2022-11-15T16:00:15;98474.34;;;12.80
69186;BMP280;56298;49.246;9.410;2022-11-15T16:02:41;98465.72;;;12.82
69186;BMP280;56298;49.246;9.410;2022-11-15T16:05:08;98475.16;;;12.81
69186;BMP280;56298;49.246;9.410;2022-11-15T16:10:27;98478.66;;;12.78
69186;BMP280;56298;49.246;9.410;2022-11-15T16:12:53;98476.31;;;12.69
69186;BMP280;56298;49.246;9.410;2022-11-15T16:15:20;98458.25;;;12.68
69186;BMP280;56298;49.246;9.410;2022-11-15T16:18:04;98444.84;;;12.56
69186;BMP280;56298;49.246;9.410;2022-11-15T16:20:43;98445.25;;;12.54
69186;BMP280;56298;49.246;9.410;2022-11-15T16:23:12;98451.53;;;12.62